sensor_id;sensor_type;location;lat;lon;timestamp;P1;durP1;ratioP1;P2;durP2;ratioP2
49396;SDS011;35615;41.410;2.194;2023-08-24T00:03:29;23.42;;;8.20;;
49396;SDS011;35615;41.410;2.194;2023-08-24T00:05:56;13.82;;;8.45;;
49396;SDS011;35615;41.410;2.194;2023-08-24T00:08:23;21.45;;;8.70;;
49396;SDS011;35615;41.410;2.194;2023-08-24T00:10:51;16.30;;;8.68;;
49396;SDS011;35615;41.410;2.194;2023-08-24T00:13:18;21.27;;;7.88;;
49396;SDS011;35615;41.410;2.194;2023-08-24T00:15:45;22.02;;;9.10;;
49396;SDS011;35615;41.410;2.194;2023-08-24T00:18:13;16.42;;;7.97;;
49396;SDS011;35615;41.410;2.194;2023-08-24T00:20:40;16.95;;;8.43;;
49396;SDS011;35615;41.410;2.194;2023-08-24T00:23:08;17.15;;;8.60;;
49396;SDS011;35615;41.410;2.194;2023-08-24T00:25:35;17.58;;;8.60;;
49396;SDS011;35615;41.410;2.194;2023-08-24T00:28:02;18.75;;;9.18;;
49396;SDS011;35615;41.410;2.194;2023-08-24T00:30:30;19.25;;;9.32;;
49396;SDS011;35615;41.410;2.194;2023-08-24T00:32:57;18.88;;;8.75;;
49396;SDS011;35615;41.410;2.194;2023-08-24T00:35:26;32.30;;;9.00;;
49396;SDS011;35615;41.410;2.194;2023-08-24T00:37:53;14.25;;;8.50;;
49396;SDS011;35615;41.410;2.194;2023-08-24T00:40:20;11.93;;;8.40;;
49396;SDS011;35615;41.410;2.194;2023-08-24T00:42:47;22.48;;;7.50;;
49396;SDS011;35615;41.410;2.194;2023-08-24T00:45:14;20.25;;;8.02;;
49396;SDS011;35615;41.410;2.194;2023-08-24T00:47:45;14.02;;;8.23;;
49396;SDS011;35615;41.410;2.194;2023-08-24T00:50:16;14.15;;;8.15;;
49396;SDS011;35615;41.410;2.194;2023-08-24T00:52:44;11.63;;;7.93;;
49396;SDS011;35615;41.410;2.194;2023-08-24T00:55:13;16.42;;;7.10;;
49396;SDS011;35615;41.410;2.194;2023-08-24T00:57:41;16.25;;;7.28;;
49396;SDS011;35615;41.410;2.194;2023-08-24T01:00:09;15.23;;;7.72;;
49396;SDS011;35615;41.410;2.194;2023-08-24T01:02:37;13.05;;;7.43;;
49396;SDS011;35615;41.410;2.194;2023-08-24T01:05:05;12.07;;;7.45;;
49396;SDS011;35615;41.410;2.194;2023-08-24T01:07:34;12.57;;;7.57;;
49396;SDS011;35615;41.410;2.194;2023-08-24T01:10:06;18.00;;;8.27;;
49396;SDS011;35615;41.410;2.194;2023-08-24T01:18:01;19.35;;;9.15;;
49396;SDS011;35615;41.410;2.194;2023-08-24T01:20:32;13.95;;;9.25;;
49396;SDS011;35615;41.410;2.194;2023-08-24T01:23:09;18.02;;;9.02;;
49396;SDS011;35615;41.410;2.194;2023-08-24T01:25:48;19.63;;;10.65;;
49396;SDS011;35615;41.410;2.194;2023-08-24T01:28:19;23.45;;;10.60;;
49396;SDS011;35615;41.410;2.194;2023-08-24T01:30:48;22.60;;;10.68;;
49396;SDS011;35615;41.410;2.194;2023-08-24T01:33:15;17.15;;;10.32;;
49396;SDS011;35615;41.410;2.194;2023-08-24T01:35:43;21.60;;;10.85;;
49396;SDS011;35615;41.410;2.194;2023-08-24T01:38:10;26.90;;;11.18;;
49396;SDS011;35615;41.410;2.194;2023-08-24T01:43:35;19.80;;;11.68;;
49396;SDS011;35615;41.410;2.194;2023-08-24T01:46:07;20.05;;;11.05;;
49396;SDS011;35615;41.410;2.194;2023-08-24T01:48:34;20.48;;;10.98;;
49396;SDS011;35615;41.410;2.194;2023-08-24T01:51:02;20.70;;;9.88;;
49396;SDS011;35615;41.410;2.194;2023-08-24T01:53:31;15.48;;;9.50;;
49396;SDS011;35615;41.410;2.194;2023-08-24T01:55:59;22.67;;;10.75;;
49396;SDS011;35615;41.410;2.194;2023-08-24T01:58:26;18.02;;;10.82;;
49396;SDS011;35615;41.410;2.194;2023-08-24T02:00:54;18.52;;;10.43;;
49396;SDS011;35615;41.410;2.194;2023-08-24T02:03:21;21.13;;;9.63;;
49396;SDS011;35615;41.410;2.194;2023-08-24T02:05:48;22.10;;;10.50;;
49396;SDS011;35615;41.410;2.194;2023-08-24T02:08:16;28.13;;;10.73;;
49396;SDS011;35615;41.410;2.194;2023-08-24T02:10:43;18.65;;;10.05;;
49396;SDS011;35615;41.410;2.194;2023-08-24T02:13:10;14.38;;;11.00;;
49396;SDS011;35615;41.410;2.194;2023-08-24T02:15:37;13.55;;;9.63;;
49396;SDS011;35615;41.410;2.194;2023-08-24T02:18:07;21.35;;;9.85;;
49396;SDS011;35615;41.410;2.194;2023-08-24T02:20:35;16.30;;;9.73;;
49396;SDS011;35615;41.410;2.194;2023-08-24T02:23:03;19.63;;;9.50;;
49396;SDS011;35615;41.410;2.194;2023-08-24T02:25:32;12.10;;;8.70;;
49396;SDS011;35615;41.410;2.194;2023-08-24T02:27:59;21.02;;;8.60;;
49396;SDS011;35615;41.410;2.194;2023-08-24T02:30:28;16.90;;;8.82;;
49396;SDS011;35615;41.410;2.194;2023-08-24T02:32:55;17.73;;;8.80;;
49396;SDS011;35615;41.410;2.194;2023-08-24T02:35:22;12.73;;;8.27;;
49396;SDS011;35615;41.410;2.194;2023-08-24T02:37:49;12.90;;;8.30;;
49396;SDS011;35615;41.410;2.194;2023-08-24T02:40:17;13.43;;;8.02;;
49396;SDS011;35615;41.410;2.194;2023-08-24T02:42:45;13.65;;;7.72;;
49396;SDS011;35615;41.410;2.194;2023-08-24T02:45:12;12.35;;;8.57;;
49396;SDS011;35615;41.410;2.194;2023-08-24T02:47:39;18.63;;;7.53;;
49396;SDS011;35615;41.410;2.194;2023-08-24T02:50:06;19.42;;;7.63;;
49396;SDS011;35615;41.410;2.194;2023-08-24T02:52:34;9.73;;;7.47;;
49396;SDS011;35615;41.410;2.194;2023-08-24T02:55:01;15.88;;;7.63;;
49396;SDS011;35615;41.410;2.194;2023-08-24T02:57:29;13.13;;;7.80;;
49396;SDS011;35615;41.410;2.194;2023-08-24T02:59:56;25.83;;;8.43;;
49396;SDS011;35615;41.410;2.194;2023-08-24T03:02:23;15.90;;;7.55;;
49396;SDS011;35615;41.410;2.194;2023-08-24T03:04:51;18.90;;;7.97;;
49396;SDS011;35615;41.410;2.194;2023-08-24T03:07:18;13.70;;;7.45;;
49396;SDS011;35615;41.410;2.194;2023-08-24T03:09:46;16.98;;;8.52;;
49396;SDS011;35615;41.410;2.194;2023-08-24T03:12:13;21.30;;;7.93;;
49396;SDS011;35615;41.410;2.194;2023-08-24T03:14:40;18.27;;;7.68;;
49396;SDS011;35615;41.410;2.194;2023-08-24T03:17:08;21.23;;;7.95;;
49396;SDS011;35615;41.410;2.194;2023-08-24T03:19:35;10.85;;;7.72;;
49396;SDS011;35615;41.410;2.194;2023-08-24T03:22:02;11.55;;;7.88;;
49396;SDS011;35615;41.410;2.194;2023-08-24T03:24:29;16.05;;;7.88;;
49396;SDS011;35615;41.410;2.194;2023-08-24T03:26:57;15.68;;;7.72;;
49396;SDS011;35615;41.410;2.194;2023-08-24T03:29:24;15.85;;;8.00;;
49396;SDS011;35615;41.410;2.194;2023-08-24T03:31:52;13.55;;;8.60;;
49396;SDS011;35615;41.410;2.194;2023-08-24T03:34:20;16.73;;;8.68;;
49396;SDS011;35615;41.410;2.194;2023-08-24T03:36:47;14.48;;;8.00;;
49396;SDS011;35615;41.410;2.194;2023-08-24T03:39:14;17.40;;;8.80;;
49396;SDS011;35615;41.410;2.194;2023-08-24T03:41:44;15.82;;;8.13;;
49396;SDS011;35615;41.410;2.194;2023-08-24T03:44:12;24.83;;;8.77;;
49396;SDS011;35615;41.410;2.194;2023-08-24T03:46:39;17.10;;;8.00;;
49396;SDS011;35615;41.410;2.194;2023-08-24T03:49:06;17.38;;;8.45;;
49396;SDS011;35615;41.410;2.194;2023-08-24T03:51:33;22.80;;;8.60;;
49396;SDS011;35615;41.410;2.194;2023-08-24T03:54:00;13.15;;;7.55;;
49396;SDS011;35615;41.410;2.194;2023-08-24T03:56:28;20.08;;;9.90;;
49396;SDS011;35615;41.410;2.194;2023-08-24T03:58:56;13.05;;;8.20;;
49396;SDS011;35615;41.410;2.194;2023-08-24T04:01:23;11.55;;;7.97;;
49396;SDS011;35615;41.410;2.194;2023-08-24T04:03:50;15.70;;;8.38;;
49396;SDS011;35615;41.410;2.194;2023-08-24T04:06:17;20.00;;;8.70;;
49396;SDS011;35615;41.410;2.194;2023-08-24T04:08:46;14.30;;;7.75;;
49396;SDS011;35615;41.410;2.194;2023-08-24T04:11:13;22.23;;;8.25;;
49396;SDS011;35615;41.410;2.194;2023-08-24T04:13:40;12.48;;;8.48;;
49396;SDS011;35615;41.410;2.194;2023-08-24T04:16:07;14.20;;;8.15;;
49396;SDS011;35615;41.410;2.194;2023-08-24T04:18:35;26.30;;;9.02;;
49396;SDS011;35615;41.410;2.194;2023-08-24T04:21:03;14.18;;;8.50;;
49396;SDS011;35615;41.410;2.194;2023-08-24T04:23:32;15.68;;;8.20;;
49396;SDS011;35615;41.410;2.194;2023-08-24T04:25:59;16.80;;;8.23;;
49396;SDS011;35615;41.410;2.194;2023-08-24T04:28:26;18.42;;;8.35;;
49396;SDS011;35615;41.410;2.194;2023-08-24T04:30:53;16.65;;;8.10;;
49396;SDS011;35615;41.410;2.194;2023-08-24T04:33:22;15.98;;;7.78;;
49396;SDS011;35615;41.410;2.194;2023-08-24T04:35:50;14.57;;;8.77;;
49396;SDS011;35615;41.410;2.194;2023-08-24T04:38:17;12.45;;;9.52;;
49396;SDS011;35615;41.410;2.194;2023-08-24T04:40:48;22.63;;;9.25;;
49396;SDS011;35615;41.410;2.194;2023-08-24T04:43:20;21.33;;;9.18;;
49396;SDS011;35615;41.410;2.194;2023-08-24T04:45:50;20.33;;;8.48;;
49396;SDS011;35615;41.410;2.194;2023-08-24T04:48:21;20.23;;;8.32;;
49396;SDS011;35615;41.410;2.194;2023-08-24T04:50:50;19.15;;;8.93;;
49396;SDS011;35615;41.410;2.194;2023-08-24T04:53:17;25.75;;;9.05;;
49396;SDS011;35615;41.410;2.194;2023-08-24T04:55:46;15.45;;;9.15;;
49396;SDS011;35615;41.410;2.194;2023-08-24T04:58:13;18.73;;;8.00;;
49396;SDS011;35615;41.410;2.194;2023-08-24T05:00:40;22.42;;;8.57;;
49396;SDS011;35615;41.410;2.194;2023-08-24T05:03:08;36.58;;;9.93;;
49396;SDS011;35615;41.410;2.194;2023-08-24T05:05:37;18.02;;;8.75;;
49396;SDS011;35615;41.410;2.194;2023-08-24T05:08:05;21.25;;;9.07;;
49396;SDS011;35615;41.410;2.194;2023-08-24T05:10:35;16.50;;;8.75;;
49396;SDS011;35615;41.410;2.194;2023-08-24T05:13:02;20.00;;;9.52;;
49396;SDS011;35615;41.410;2.194;2023-08-24T05:15:30;17.05;;;9.60;;
49396;SDS011;35615;41.410;2.194;2023-08-24T05:17:57;24.58;;;9.25;;
49396;SDS011;35615;41.410;2.194;2023-08-24T05:20:26;29.50;;;9.60;;
49396;SDS011;35615;41.410;2.194;2023-08-24T05:22:54;26.55;;;9.45;;
49396;SDS011;35615;41.410;2.194;2023-08-24T05:25:22;21.15;;;10.02;;
49396;SDS011;35615;41.410;2.194;2023-08-24T05:27:49;20.55;;;10.85;;
49396;SDS011;35615;41.410;2.194;2023-08-24T05:30:17;18.20;;;10.30;;
49396;SDS011;35615;41.410;2.194;2023-08-24T05:32:44;20.80;;;9.93;;
49396;SDS011;35615;41.410;2.194;2023-08-24T05:35:11;20.27;;;9.73;;
49396;SDS011;35615;41.410;2.194;2023-08-24T05:37:39;22.30;;;9.98;;
49396;SDS011;35615;41.410;2.194;2023-08-24T05:40:06;16.83;;;10.65;;
49396;SDS011;35615;41.410;2.194;2023-08-24T05:42:34;18.08;;;11.35;;
49396;SDS011;35615;41.410;2.194;2023-08-24T05:45:03;15.50;;;9.52;;
49396;SDS011;35615;41.410;2.194;2023-08-24T05:47:31;24.40;;;11.20;;
49396;SDS011;35615;41.410;2.194;2023-08-24T05:49:58;24.67;;;9.88;;
49396;SDS011;35615;41.410;2.194;2023-08-24T05:52:25;21.30;;;9.98;;
49396;SDS011;35615;41.410;2.194;2023-08-24T05:54:52;22.05;;;9.70;;
49396;SDS011;35615;41.410;2.194;2023-08-24T05:57:19;22.90;;;10.93;;
49396;SDS011;35615;41.410;2.194;2023-08-24T05:59:47;22.25;;;9.27;;
49396;SDS011;35615;41.410;2.194;2023-08-24T06:02:17;26.48;;;9.52;;
49396;SDS011;35615;41.410;2.194;2023-08-24T06:04:44;20.77;;;9.20;;
49396;SDS011;35615;41.410;2.194;2023-08-24T06:07:11;31.00;;;9.43;;
49396;SDS011;35615;41.410;2.194;2023-08-24T06:09:39;22.38;;;8.88;;
49396;SDS011;35615;41.410;2.194;2023-08-24T06:12:06;21.15;;;8.93;;
49396;SDS011;35615;41.410;2.194;2023-08-24T06:14:34;18.35;;;8.90;;
49396;SDS011;35615;41.410;2.194;2023-08-24T06:17:02;16.85;;;10.02;;
49396;SDS011;35615;41.410;2.194;2023-08-24T06:19:30;31.60;;;9.27;;
49396;SDS011;35615;41.410;2.194;2023-08-24T06:21:57;24.83;;;8.98;;
49396;SDS011;35615;41.410;2.194;2023-08-24T06:24:24;34.55;;;11.43;;
49396;SDS011;35615;41.410;2.194;2023-08-24T06:26:52;22.25;;;8.80;;
49396;SDS011;35615;41.410;2.194;2023-08-24T06:29:20;28.23;;;10.27;;
49396;SDS011;35615;41.410;2.194;2023-08-24T06:31:47;21.48;;;10.27;;
49396;SDS011;35615;41.410;2.194;2023-08-24T06:34:14;23.35;;;9.50;;
49396;SDS011;35615;41.410;2.194;2023-08-24T06:36:41;22.33;;;11.82;;
49396;SDS011;35615;41.410;2.194;2023-08-24T06:39:08;43.90;;;24.67;;
49396;SDS011;35615;41.410;2.194;2023-08-24T06:41:36;30.02;;;12.32;;
49396;SDS011;35615;41.410;2.194;2023-08-24T06:44:06;22.88;;;10.57;;
49396;SDS011;35615;41.410;2.194;2023-08-24T06:46:33;19.10;;;9.15;;
49396;SDS011;35615;41.410;2.194;2023-08-24T06:49:01;23.92;;;9.93;;
49396;SDS011;35615;41.410;2.194;2023-08-24T06:51:28;29.27;;;9.30;;
49396;SDS011;35615;41.410;2.194;2023-08-24T06:53:56;25.63;;;9.50;;
49396;SDS011;35615;41.410;2.194;2023-08-24T06:56:23;25.02;;;9.77;;
49396;SDS011;35615;41.410;2.194;2023-08-24T06:58:51;22.13;;;9.18;;
49396;SDS011;35615;41.410;2.194;2023-08-24T07:01:18;24.42;;;10.40;;
49396;SDS011;35615;41.410;2.194;2023-08-24T07:03:45;26.42;;;9.38;;
49396;SDS011;35615;41.410;2.194;2023-08-24T07:06:13;27.15;;;10.75;;
49396;SDS011;35615;41.410;2.194;2023-08-24T07:08:40;29.75;;;10.52;;
49396;SDS011;35615;41.410;2.194;2023-08-24T07:11:07;21.77;;;10.10;;
49396;SDS011;35615;41.410;2.194;2023-08-24T07:13:34;19.30;;;10.32;;
49396;SDS011;35615;41.410;2.194;2023-08-24T07:16:01;29.98;;;10.70;;
49396;SDS011;35615;41.410;2.194;2023-08-24T07:18:32;16.92;;;9.43;;
49396;SDS011;35615;41.410;2.194;2023-08-24T07:20:59;15.45;;;8.50;;
49396;SDS011;35615;41.410;2.194;2023-08-24T07:23:26;17.13;;;8.75;;
49396;SDS011;35615;41.410;2.194;2023-08-24T07:25:53;15.65;;;9.18;;
49396;SDS011;35615;41.410;2.194;2023-08-24T07:28:20;21.50;;;10.05;;
49396;SDS011;35615;41.410;2.194;2023-08-24T07:30:47;24.85;;;9.32;;
49396;SDS011;35615;41.410;2.194;2023-08-24T07:33:15;20.55;;;9.23;;
49396;SDS011;35615;41.410;2.194;2023-08-24T07:35:42;24.00;;;10.13;;
49396;SDS011;35615;41.410;2.194;2023-08-24T07:38:09;15.75;;;9.65;;
49396;SDS011;35615;41.410;2.194;2023-08-24T07:40:37;18.38;;;9.25;;
49396;SDS011;35615;41.410;2.194;2023-08-24T07:43:04;35.17;;;10.98;;
49396;SDS011;35615;41.410;2.194;2023-08-24T07:45:31;29.17;;;10.07;;
49396;SDS011;35615;41.410;2.194;2023-08-24T07:47:58;32.88;;;9.90;;
49396;SDS011;35615;41.410;2.194;2023-08-24T07:50:26;22.67;;;10.57;;
49396;SDS011;35615;41.410;2.194;2023-08-24T07:52:53;27.90;;;9.55;;
49396;SDS011;35615;41.410;2.194;2023-08-24T07:55:23;19.33;;;9.30;;
49396;SDS011;35615;41.410;2.194;2023-08-24T07:57:50;17.35;;;9.88;;
49396;SDS011;35615;41.410;2.194;2023-08-24T08:00:19;20.45;;;9.65;;
49396;SDS011;35615;41.410;2.194;2023-08-24T08:02:46;21.70;;;9.68;;
49396;SDS011;35615;41.410;2.194;2023-08-24T08:05:20;26.95;;;9.90;;
49396;SDS011;35615;41.410;2.194;2023-08-24T08:07:47;22.83;;;11.35;;
49396;SDS011;35615;41.410;2.194;2023-08-24T08:10:16;22.35;;;9.27;;
49396;SDS011;35615;41.410;2.194;2023-08-24T08:12:44;21.88;;;10.05;;
49396;SDS011;35615;41.410;2.194;2023-08-24T08:15:11;18.45;;;9.52;;
49396;SDS011;35615;41.410;2.194;2023-08-24T08:17:38;14.93;;;8.57;;
49396;SDS011;35615;41.410;2.194;2023-08-24T08:20:05;23.85;;;9.75;;
49396;SDS011;35615;41.410;2.194;2023-08-24T08:22:33;14.88;;;9.45;;
49396;SDS011;35615;41.410;2.194;2023-08-24T08:25:05;18.25;;;10.02;;
49396;SDS011;35615;41.410;2.194;2023-08-24T08:27:33;16.33;;;9.65;;
49396;SDS011;35615;41.410;2.194;2023-08-24T08:30:00;16.67;;;9.18;;
49396;SDS011;35615;41.410;2.194;2023-08-24T08:32:28;28.58;;;9.65;;
49396;SDS011;35615;41.410;2.194;2023-08-24T08:34:55;18.52;;;8.82;;
49396;SDS011;35615;41.410;2.194;2023-08-24T08:37:27;14.00;;;9.30;;
49396;SDS011;35615;41.410;2.194;2023-08-24T08:39:54;18.85;;;8.82;;
49396;SDS011;35615;41.410;2.194;2023-08-24T08:42:21;19.48;;;9.38;;
49396;SDS011;35615;41.410;2.194;2023-08-24T08:44:49;16.02;;;8.55;;
49396;SDS011;35615;41.410;2.194;2023-08-24T08:47:19;18.80;;;9.52;;
49396;SDS011;35615;41.410;2.194;2023-08-24T08:49:49;14.55;;;8.70;;
49396;SDS011;35615;41.410;2.194;2023-08-24T08:52:20;15.27;;;8.98;;
49396;SDS011;35615;41.410;2.194;2023-08-24T08:54:47;13.15;;;9.23;;
49396;SDS011;35615;41.410;2.194;2023-08-24T08:57:14;19.40;;;8.93;;
49396;SDS011;35615;41.410;2.194;2023-08-24T08:59:43;15.85;;;9.32;;
49396;SDS011;35615;41.410;2.194;2023-08-24T09:02:13;16.10;;;8.70;;
49396;SDS011;35615;41.410;2.194;2023-08-24T09:04:43;13.90;;;9.35;;
49396;SDS011;35615;41.410;2.194;2023-08-24T09:07:13;17.08;;;8.02;;
49396;SDS011;35615;41.410;2.194;2023-08-24T09:09:41;11.40;;;8.45;;
49396;SDS011;35615;41.410;2.194;2023-08-24T09:12:09;17.02;;;8.80;;
49396;SDS011;35615;41.410;2.194;2023-08-24T09:14:36;12.65;;;9.38;;
49396;SDS011;35615;41.410;2.194;2023-08-24T09:17:04;17.42;;;8.52;;
49396;SDS011;35615;41.410;2.194;2023-08-24T09:19:32;14.35;;;8.57;;
49396;SDS011;35615;41.410;2.194;2023-08-24T09:22:05;21.73;;;9.15;;
49396;SDS011;35615;41.410;2.194;2023-08-24T09:24:35;15.88;;;8.88;;
49396;SDS011;35615;41.410;2.194;2023-08-24T09:27:15;15.27;;;8.23;;
49396;SDS011;35615;41.410;2.194;2023-08-24T09:29:49;25.20;;;8.27;;
49396;SDS011;35615;41.410;2.194;2023-08-24T09:32:22;18.77;;;8.73;;
49396;SDS011;35615;41.410;2.194;2023-08-24T09:34:54;13.13;;;8.05;;
49396;SDS011;35615;41.410;2.194;2023-08-24T09:37:22;15.90;;;8.27;;
49396;SDS011;35615;41.410;2.194;2023-08-24T09:39:50;16.58;;;7.80;;
49396;SDS011;35615;41.410;2.194;2023-08-24T09:42:30;24.17;;;9.85;;
49396;SDS011;35615;41.410;2.194;2023-08-24T09:45:03;14.50;;;7.93;;
49396;SDS011;35615;41.410;2.194;2023-08-24T09:47:31;15.30;;;8.35;;
49396;SDS011;35615;41.410;2.194;2023-08-24T09:49:59;16.92;;;9.43;;
49396;SDS011;35615;41.410;2.194;2023-08-24T09:52:27;18.40;;;10.73;;
49396;SDS011;35615;41.410;2.194;2023-08-24T09:55:05;20.58;;;11.05;;
49396;SDS011;35615;41.410;2.194;2023-08-24T09:57:41;20.80;;;10.30;;
49396;SDS011;35615;41.410;2.194;2023-08-24T10:00:09;24.05;;;9.10;;
49396;SDS011;35615;41.410;2.194;2023-08-24T10:02:40;21.50;;;10.50;;
49396;SDS011;35615;41.410;2.194;2023-08-24T10:05:23;15.52;;;10.27;;
49396;SDS011;35615;41.410;2.194;2023-08-24T10:08:07;18.42;;;10.25;;
49396;SDS011;35615;41.410;2.194;2023-08-24T10:10:36;14.57;;;10.27;;
49396;SDS011;35615;41.410;2.194;2023-08-24T10:13:08;21.67;;;10.63;;
49396;SDS011;35615;41.410;2.194;2023-08-24T10:15:44;13.55;;;8.68;;
49396;SDS011;35615;41.410;2.194;2023-08-24T10:18:15;16.00;;;10.32;;
49396;SDS011;35615;41.410;2.194;2023-08-24T10:20:44;28.15;;;11.68;;
49396;SDS011;35615;41.410;2.194;2023-08-24T10:23:14;18.17;;;9.85;;
49396;SDS011;35615;41.410;2.194;2023-08-24T10:25:44;24.95;;;12.05;;
49396;SDS011;35615;41.410;2.194;2023-08-24T10:28:13;18.13;;;9.38;;
49396;SDS011;35615;41.410;2.194;2023-08-24T10:30:43;17.95;;;10.48;;
49396;SDS011;35615;41.410;2.194;2023-08-24T10:33:13;24.80;;;11.35;;
49396;SDS011;35615;41.410;2.194;2023-08-24T10:35:42;22.88;;;10.85;;
49396;SDS011;35615;41.410;2.194;2023-08-24T10:38:22;17.52;;;10.48;;
49396;SDS011;35615;41.410;2.194;2023-08-24T10:40:50;15.27;;;9.23;;
49396;SDS011;35615;41.410;2.194;2023-08-24T10:43:18;24.75;;;10.93;;
49396;SDS011;35615;41.410;2.194;2023-08-24T10:45:56;23.35;;;9.48;;
49396;SDS011;35615;41.410;2.194;2023-08-24T10:48:57;18.67;;;7.97;;
49396;SDS011;35615;41.410;2.194;2023-08-24T10:51:24;16.35;;;9.85;;
49396;SDS011;35615;41.410;2.194;2023-08-24T10:53:55;16.73;;;10.23;;
49396;SDS011;35615;41.410;2.194;2023-08-24T10:56:36;19.33;;;9.13;;
49396;SDS011;35615;41.410;2.194;2023-08-24T10:59:26;16.20;;;10.27;;
49396;SDS011;35615;41.410;2.194;2023-08-24T11:02:03;18.60;;;10.00;;
49396;SDS011;35615;41.410;2.194;2023-08-24T11:04:32;18.30;;;8.73;;
49396;SDS011;35615;41.410;2.194;2023-08-24T11:07:01;15.40;;;10.52;;
49396;SDS011;35615;41.410;2.194;2023-08-24T11:09:47;19.77;;;9.80;;
49396;SDS011;35615;41.410;2.194;2023-08-24T11:12:14;17.13;;;9.02;;
49396;SDS011;35615;41.410;2.194;2023-08-24T11:14:48;20.60;;;9.77;;
49396;SDS011;35615;41.410;2.194;2023-08-24T11:17:21;21.30;;;9.45;;
49396;SDS011;35615;41.410;2.194;2023-08-24T11:19:50;14.27;;;9.07;;
49396;SDS011;35615;41.410;2.194;2023-08-24T11:22:18;24.65;;;8.75;;
49396;SDS011;35615;41.410;2.194;2023-08-24T11:24:46;23.67;;;8.18;;
49396;SDS011;35615;41.410;2.194;2023-08-24T11:27:13;21.67;;;9.32;;
49396;SDS011;35615;41.410;2.194;2023-08-24T11:29:42;16.90;;;8.20;;
49396;SDS011;35615;41.410;2.194;2023-08-24T11:32:10;17.70;;;8.63;;
49396;SDS011;35615;41.410;2.194;2023-08-24T11:34:37;10.38;;;6.70;;
49396;SDS011;35615;41.410;2.194;2023-08-24T11:37:05;14.45;;;6.93;;
49396;SDS011;35615;41.410;2.194;2023-08-24T11:39:32;13.88;;;6.05;;
49396;SDS011;35615;41.410;2.194;2023-08-24T11:42:06;15.65;;;6.18;;
49396;SDS011;35615;41.410;2.194;2023-08-24T11:44:45;10.35;;;6.53;;
49396;SDS011;35615;41.410;2.194;2023-08-24T11:47:16;15.38;;;6.05;;
49396;SDS011;35615;41.410;2.194;2023-08-24T11:49:46;13.15;;;6.30;;
49396;SDS011;35615;41.410;2.194;2023-08-24T11:52:14;14.10;;;6.20;;
49396;SDS011;35615;41.410;2.194;2023-08-24T11:54:43;22.25;;;6.15;;
49396;SDS011;35615;41.410;2.194;2023-08-24T11:57:10;12.70;;;5.93;;
49396;SDS011;35615;41.410;2.194;2023-08-24T11:59:41;12.95;;;6.15;;
49396;SDS011;35615;41.410;2.194;2023-08-24T12:02:11;11.32;;;6.05;;
49396;SDS011;35615;41.410;2.194;2023-08-24T12:04:42;22.10;;;6.32;;
49396;SDS011;35615;41.410;2.194;2023-08-24T12:07:13;21.15;;;6.43;;
49396;SDS011;35615;41.410;2.194;2023-08-24T12:09:42;15.80;;;5.53;;
49396;SDS011;35615;41.410;2.194;2023-08-24T12:12:16;11.80;;;6.55;;
49396;SDS011;35615;41.410;2.194;2023-08-24T12:14:45;15.05;;;5.55;;
49396;SDS011;35615;41.410;2.194;2023-08-24T12:17:14;12.73;;;6.75;;
49396;SDS011;35615;41.410;2.194;2023-08-24T12:19:55;21.70;;;6.22;;
49396;SDS011;35615;41.410;2.194;2023-08-24T12:22:24;15.30;;;6.30;;
49396;SDS011;35615;41.410;2.194;2023-08-24T12:24:52;14.40;;;5.90;;
49396;SDS011;35615;41.410;2.194;2023-08-24T12:27:21;12.20;;;5.63;;
49396;SDS011;35615;41.410;2.194;2023-08-24T12:29:49;13.80;;;5.55;;
49396;SDS011;35615;41.410;2.194;2023-08-24T12:32:17;7.78;;;5.65;;
49396;SDS011;35615;41.410;2.194;2023-08-24T12:34:52;8.18;;;6.18;;
49396;SDS011;35615;41.410;2.194;2023-08-24T12:37:21;9.73;;;5.75;;
49396;SDS011;35615;41.410;2.194;2023-08-24T12:39:49;10.30;;;6.70;;
49396;SDS011;35615;41.410;2.194;2023-08-24T12:42:16;16.90;;;6.88;;
49396;SDS011;35615;41.410;2.194;2023-08-24T12:44:44;12.35;;;6.35;;
49396;SDS011;35615;41.410;2.194;2023-08-24T12:47:11;13.88;;;6.03;;
49396;SDS011;35615;41.410;2.194;2023-08-24T12:49:38;14.60;;;5.60;;
49396;SDS011;35615;41.410;2.194;2023-08-24T12:52:05;12.63;;;5.82;;
49396;SDS011;35615;41.410;2.194;2023-08-24T12:54:32;12.23;;;6.70;;
49396;SDS011;35615;41.410;2.194;2023-08-24T12:56:59;13.80;;;6.50;;
49396;SDS011;35615;41.410;2.194;2023-08-24T12:59:27;15.25;;;6.80;;
49396;SDS011;35615;41.410;2.194;2023-08-24T13:01:54;18.00;;;7.10;;
49396;SDS011;35615;41.410;2.194;2023-08-24T13:04:21;16.77;;;6.10;;
49396;SDS011;35615;41.410;2.194;2023-08-24T13:06:48;12.82;;;6.20;;
49396;SDS011;35615;41.410;2.194;2023-08-24T13:09:15;16.73;;;6.80;;
49396;SDS011;35615;41.410;2.194;2023-08-24T13:11:43;13.80;;;6.75;;
49396;SDS011;35615;41.410;2.194;2023-08-24T13:14:10;18.27;;;7.20;;
49396;SDS011;35615;41.410;2.194;2023-08-24T13:16:37;17.58;;;7.20;;
49396;SDS011;35615;41.410;2.194;2023-08-24T13:19:05;15.45;;;6.03;;
49396;SDS011;35615;41.410;2.194;2023-08-24T13:21:32;11.65;;;6.05;;
49396;SDS011;35615;41.410;2.194;2023-08-24T13:23:59;12.05;;;6.95;;
49396;SDS011;35615;41.410;2.194;2023-08-24T13:26:26;14.18;;;6.72;;
49396;SDS011;35615;41.410;2.194;2023-08-24T13:28:53;15.85;;;6.65;;
49396;SDS011;35615;41.410;2.194;2023-08-24T13:31:26;11.60;;;6.85;;
49396;SDS011;35615;41.410;2.194;2023-08-24T13:33:53;18.98;;;6.63;;
49396;SDS011;35615;41.410;2.194;2023-08-24T13:36:20;18.88;;;6.63;;
49396;SDS011;35615;41.410;2.194;2023-08-24T13:38:47;15.07;;;6.07;;
49396;SDS011;35615;41.410;2.194;2023-08-24T13:41:16;10.82;;;5.80;;
49396;SDS011;35615;41.410;2.194;2023-08-24T13:43:43;12.98;;;6.53;;
49396;SDS011;35615;41.410;2.194;2023-08-24T13:46:10;11.27;;;6.55;;
49396;SDS011;35615;41.410;2.194;2023-08-24T13:48:38;18.05;;;7.28;;
49396;SDS011;35615;41.410;2.194;2023-08-24T13:51:05;10.75;;;6.50;;
49396;SDS011;35615;41.410;2.194;2023-08-24T13:53:35;13.18;;;6.55;;
49396;SDS011;35615;41.410;2.194;2023-08-24T13:56:03;11.65;;;6.38;;
49396;SDS011;35615;41.410;2.194;2023-08-24T13:58:32;10.23;;;5.30;;
49396;SDS011;35615;41.410;2.194;2023-08-24T14:01:02;9.48;;;6.75;;
49396;SDS011;35615;41.410;2.194;2023-08-24T14:03:30;18.13;;;6.75;;
49396;SDS011;35615;41.410;2.194;2023-08-24T14:05:57;16.02;;;5.82;;
49396;SDS011;35615;41.410;2.194;2023-08-24T14:08:25;15.45;;;6.75;;
49396;SDS011;35615;41.410;2.194;2023-08-24T14:10:52;15.27;;;5.90;;
49396;SDS011;35615;41.410;2.194;2023-08-24T14:13:25;14.63;;;6.68;;
49396;SDS011;35615;41.410;2.194;2023-08-24T14:15:52;22.63;;;7.18;;
49396;SDS011;35615;41.410;2.194;2023-08-24T14:18:22;10.02;;;6.15;;
49396;SDS011;35615;41.410;2.194;2023-08-24T14:20:49;14.70;;;7.88;;
49396;SDS011;35615;41.410;2.194;2023-08-24T14:23:18;11.68;;;7.15;;
49396;SDS011;35615;41.410;2.194;2023-08-24T14:25:46;17.17;;;7.22;;
49396;SDS011;35615;41.410;2.194;2023-08-24T14:28:19;19.00;;;7.15;;
49396;SDS011;35615;41.410;2.194;2023-08-24T14:30:49;14.07;;;6.28;;
49396;SDS011;35615;41.410;2.194;2023-08-24T14:33:16;10.40;;;6.10;;
49396;SDS011;35615;41.410;2.194;2023-08-24T14:35:53;13.52;;;6.03;;
49396;SDS011;35615;41.410;2.194;2023-08-24T14:38:20;13.35;;;6.28;;
49396;SDS011;35615;41.410;2.194;2023-08-24T14:40:48;9.75;;;6.45;;
49396;SDS011;35615;41.410;2.194;2023-08-24T14:43:15;13.23;;;6.72;;
49396;SDS011;35615;41.410;2.194;2023-08-24T14:45:42;10.90;;;6.85;;
49396;SDS011;35615;41.410;2.194;2023-08-24T14:48:09;19.95;;;6.50;;
49396;SDS011;35615;41.410;2.194;2023-08-24T14:50:38;15.85;;;6.93;;
49396;SDS011;35615;41.410;2.194;2023-08-24T14:53:05;14.90;;;7.28;;